Alcaraz, Argentina
Current Conditions -  °F | °C
As of 7:00 AM on Saturday 25 Oct 2014 (Local Time) from SUSO Reporting Station
Clear Clear  
Wind Chill: 61°   Ceiling: Unl
Heat Index: 61°   Visibility: 4mi
Dew Point: 59°   Wind: 5mph
Humidity: 94%   Direction: 150°SSE
Pressure: 29.91"   Gusts: NA
Location:  31.47°S, 59.6°W
Report Text: SUSO 251000Z 15004KT 7000 NSC 16/15 Q1013
Loading
Personal Weather Stations






























Interactive Weather Map
Tropical Storm Tracking
New forecast layout! Learn more

10-Day Weather Forecast

Advertisements
Track Severe Weather on mobile